Time;durP1;ratioP1;P1;durP2;ratioP2;P2;SDS_P1;SDS_P2;PMS_P1;PMS_P2;Temp;Humidity;BMP_temperature;BMP_pressure;BME280_temperature;BME280_humidity;BME280_pressure;Samples;Min_cycle;Max_cycle;Signal;HPM_P1;HPM_P2
2023/05/14 00:00:39;;;;;;;4.30;2.63;;;;;;;;;;5030814;28;20462;-86
2023/05/14 00:03:05;;;;;;;4.20;2.15;;;;;;;;;;5019349;28;20042;-86
2023/05/14 00:05:30;;;;;;;2.47;2.00;;;;;;;;;;5019942;28;20038;-86
2023/05/14 00:07:55;;;;;;;3.45;2.00;;;;;;;;;;5019754;28;20030;-86
2023/05/14 00:10:21;;;;;;;2.80;2.33;;;;;;;;;;5020101;28;20038;-88
2023/05/14 00:12:47;;;;;;;28.90;2.63;;;;;;;;;;5019660;28;20503;-86
2023/05/14 00:15:12;;;;;;;3.67;2.45;;;;;;;;;;5019297;28;20037;-86
2023/05/14 00:17:38;;;;;;;4.25;2.30;;;;;;;;;;5019659;28;20105;-87
2023/05/14 00:20:06;;;;;;;2.60;2.00;;;;;;;;;;5035117;28;20116;-87
2023/05/14 00:22:32;;;;;;;3.75;1.90;;;;;;;;;;5034893;28;20060;-87
2023/05/14 00:24:57;;;;;;;4.28;1.80;;;;;;;;;;5030664;28;20076;-87
2023/05/14 00:27:23;;;;;;;2.70;2.03;;;;;;;;;;5019906;28;20042;-87
2023/05/14 00:29:48;;;;;;;4.50;2.00;;;;;;;;;;5011094;28;20089;-86
2023/05/14 00:32:14;;;;;;;3.13;1.90;;;;;;;;;;5020067;28;20030;-87
2023/05/14 00:34:39;;;;;;;2.72;1.60;;;;;;;;;;5019118;28;20080;-86
2023/05/14 00:37:05;;;;;;;3.10;1.60;;;;;;;;;;5017763;28;20592;-86
2023/05/14 00:39:30;;;;;;;1.40;1.30;;;;;;;;;;5034268;28;20042;-86
2023/05/14 00:41:56;;;;;;;1.98;1.45;;;;;;;;;;5013586;28;20057;-87
2023/05/14 00:44:21;;;;;;;3.85;1.83;;;;;;;;;;5019662;28;20041;-87
2023/05/14 00:46:47;;;;;;;2.85;1.85;;;;;;;;;;5014579;28;20042;-87
2023/05/14 00:49:13;;;;;;;10.18;2.60;;;;;;;;;;5034058;28;20474;-87
2023/05/14 00:51:40;;;;;;;2.55;2.10;;;;;;;;;;5034025;28;20056;-86
2023/05/14 00:54:06;;;;;;;2.08;1.70;;;;;;;;;;5008044;28;20042;-86
2023/05/14 00:56:32;;;;;;;3.25;1.70;;;;;;;;;;5019374;28;20041;-86
2023/05/14 00:58:58;;;;;;;1.92;1.50;;;;;;;;;;4999056;28;20037;-86
2023/05/14 01:01:27;;;;;;;1.88;1.67;;;;;;;;;;5015960;28;20034;-87
2023/05/14 01:03:53;;;;;;;2.38;1.70;;;;;;;;;;5020000;28;20053;-86
2023/05/14 01:06:47;;;;;;;3.20;1.40;;;;;;;;;;5030181;28;20069;-87
2023/05/14 01:09:22;;;;;;;2.00;1.40;;;;;;;;;;5034483;28;20041;-87
2023/05/14 01:12:11;;;;;;;2.90;1.60;;;;;;;;;;5019101;28;20564;-86
2023/05/14 01:14:50;;;;;;;2.22;1.40;;;;;;;;;;5004649;28;20137;-86
2023/05/14 01:17:21;;;;;;;2.03;1.50;;;;;;;;;;5017411;28;20048;-87
2023/05/14 01:19:47;;;;;;;1.92;1.60;;;;;;;;;;4997089;28;20041;-87
2023/05/14 01:22:13;;;;;;;2.10;1.70;;;;;;;;;;5019979;28;20126;-86
2023/05/14 01:24:39;;;;;;;3.35;1.70;;;;;;;;;;5005923;28;20026;-85
2023/05/14 01:27:20;;;;;;;2.42;1.70;;;;;;;;;;5018179;28;20492;-86
2023/05/14 01:30:01;;;;;;;3.03;1.70;;;;;;;;;;5016489;28;20045;-86
2023/05/14 01:32:29;;;;;;;3.83;1.70;;;;;;;;;;5013757;28;20029;-85
2023/05/14 01:34:57;;;;;;;1.80;1.50;;;;;;;;;;5014031;28;20045;-85
2023/05/14 01:37:24;;;;;;;5.40;1.65;;;;;;;;;;5014117;28;20059;-85
2023/05/14 01:39:51;;;;;;;2.00;1.40;;;;;;;;;;5012991;28;20038;-85
2023/05/14 01:42:17;;;;;;;1.80;1.50;;;;;;;;;;5030038;28;20112;-85
2023/05/14 01:44:42;;;;;;;2.05;1.60;;;;;;;;;;5014434;28;20510;-86
2023/05/14 01:47:08;;;;;;;2.67;1.70;;;;;;;;;;5012645;28;20092;-87
2023/05/14 01:49:33;;;;;;;2.60;1.90;;;;;;;;;;5013911;28;20032;-86
2023/05/14 01:51:59;;;;;;;3.40;1.90;;;;;;;;;;5019328;28;20391;-85
2023/05/14 01:54:24;;;;;;;2.35;1.90;;;;;;;;;;5013644;28;20499;-85
2023/05/14 01:56:50;;;;;;;3.03;2.40;;;;;;;;;;5017421;28;20029;-85
2023/05/14 01:59:16;;;;;;;4.40;2.40;;;;;;;;;;5012818;28;20414;-85
2023/05/14 02:01:41;;;;;;;3.58;2.60;;;;;;;;;;5028886;28;20490;-86
2023/05/14 02:06:51;;;;;;;3.13;1.95;;;;;;;;;;5011510;28;20046;-83
2023/05/14 02:09:17;;;;;;;2.25;1.90;;;;;;;;;;5016313;28;20110;-83
2023/05/14 02:11:42;;;;;;;2.20;1.80;;;;;;;;;;4997375;28;20042;-82
2023/05/14 02:14:08;;;;;;;2.85;1.90;;;;;;;;;;4983470;28;20030;-81
2023/05/14 02:16:33;;;;;;;3.72;1.67;;;;;;;;;;4988072;28;20101;-82
2023/05/14 02:18:59;;;;;;;2.20;1.70;;;;;;;;;;4992870;28;20058;-82
2023/05/14 02:21:24;;;;;;;2.00;1.60;;;;;;;;;;4997021;28;20033;-81
2023/05/14 02:23:50;;;;;;;2.75;1.90;;;;;;;;;;5000517;28;20026;-81
2023/05/14 02:26:15;;;;;;;2.10;1.80;;;;;;;;;;4987166;28;20031;-83
2023/05/14 02:28:41;;;;;;;2.80;1.60;;;;;;;;;;4989301;28;20037;-82
2023/05/14 02:31:06;;;;;;;3.88;1.60;;;;;;;;;;5002037;28;20088;-81
2023/05/14 02:33:32;;;;;;;3.60;1.70;;;;;;;;;;4979712;28;20026;-82
2023/05/14 02:35:57;;;;;;;1.90;1.65;;;;;;;;;;5000295;28;20029;-82
2023/05/14 02:38:23;;;;;;;2.00;1.60;;;;;;;;;;4989636;28;20035;-80
2023/05/14 02:40:48;;;;;;;2.15;1.70;;;;;;;;;;4987553;28;20030;-83
2023/05/14 02:43:14;;;;;;;3.42;1.58;;;;;;;;;;5008840;28;20233;-83
2023/05/14 02:45:39;;;;;;;2.50;1.88;;;;;;;;;;4996497;28;20037;-81
2023/05/14 02:48:05;;;;;;;6.25;1.88;;;;;;;;;;5000390;28;20389;-82
2023/05/14 02:50:30;;;;;;;2.40;2.00;;;;;;;;;;4998618;28;20037;-82
2023/05/14 02:52:56;;;;;;;3.67;2.00;;;;;;;;;;4991159;28;20041;-83
2023/05/14 02:55:22;;;;;;;3.85;2.00;;;;;;;;;;4993461;28;20050;-82
2023/05/14 02:57:48;;;;;;;8.55;1.73;;;;;;;;;;4998467;28;20080;-82
2023/05/14 03:00:13;;;;;;;3.25;2.08;;;;;;;;;;4991456;28;20045;-82
2023/05/14 03:02:39;;;;;;;3.45;2.10;;;;;;;;;;5002831;28;20034;-82
2023/05/14 03:05:05;;;;;;;2.60;2.05;;;;;;;;;;4982848;28;20043;-82
2023/05/14 03:07:30;;;;;;;3.20;2.00;;;;;;;;;;4987486;28;20396;-82
2023/05/14 03:09:56;;;;;;;2.60;2.00;;;;;;;;;;4991119;28;20061;-81
2023/05/14 03:12:22;;;;;;;3.05;2.00;;;;;;;;;;4994897;28;20030;-82
2023/05/14 03:14:47;;;;;;;2.17;1.75;;;;;;;;;;4998048;28;20030;-81
2023/05/14 03:17:12;;;;;;;2.47;2.08;;;;;;;;;;4977669;28;20034;-81
2023/05/14 03:19:38;;;;;;;2.78;1.90;;;;;;;;;;5005451;28;20081;-81
2023/05/14 03:22:06;;;;;;;3.20;2.25;;;;;;;;;;4991592;28;20025;-81
2023/05/14 03:24:31;;;;;;;4.15;2.28;;;;;;;;;;4995934;28;20034;-82
2023/05/14 03:26:57;;;;;;;4.47;2.40;;;;;;;;;;5004155;28;20054;-81
2023/05/14 03:29:22;;;;;;;4.00;2.22;;;;;;;;;;4995205;28;20034;-81
2023/05/14 03:31:49;;;;;;;4.65;2.28;;;;;;;;;;4974467;28;20034;-81
2023/05/14 03:34:15;;;;;;;4.65;2.40;;;;;;;;;;5010270;28;20137;-81
2023/05/14 03:36:40;;;;;;;3.05;2.30;;;;;;;;;;5016321;28;20069;-81
2023/05/14 03:39:06;;;;;;;4.38;2.35;;;;;;;;;;4998329;28;20163;-82
2023/05/14 03:41:32;;;;;;;4.53;2.42;;;;;;;;;;5005662;28;20369;-80
2023/05/14 03:43:57;;;;;;;3.20;2.58;;;;;;;;;;4972409;28;20027;-81
2023/05/14 03:46:23;;;;;;;4.18;2.60;;;;;;;;;;4976985;28;20105;-82
2023/05/14 03:48:48;;;;;;;3.15;2.20;;;;;;;;;;4998664;28;20129;-82
2023/05/14 03:51:14;;;;;;;6.35;2.45;;;;;;;;;;5004909;28;20239;-83
2023/05/14 03:53:40;;;;;;;3.33;2.25;;;;;;;;;;5017923;28;20027;-81
2023/05/14 03:56:05;;;;;;;3.00;2.40;;;;;;;;;;4975972;28;20035;-83
2023/05/14 03:58:31;;;;;;;5.35;3.80;;;;;;;;;;5008433;28;20029;-84
2023/05/14 04:00:59;;;;;;;3.25;2.72;;;;;;;;;;5001589;28;20029;-82
2023/05/14 04:03:24;;;;;;;3.85;3.05;;;;;;;;;;5003409;28;20041;-81
2023/05/14 04:05:50;;;;;;;3.67;3.08;;;;;;;;;;5003777;28;20034;-80
2023/05/14 04:08:15;;;;;;;5.45;3.13;;;;;;;;;;4985775;28;20030;-80
2023/05/14 04:10:41;;;;;;;8.25;3.00;;;;;;;;;;5008214;28;20058;-84
2023/05/14 04:13:07;;;;;;;5.15;3.10;;;;;;;;;;5010936;28;20093;-82
2023/05/14 04:15:37;;;;;;;3.35;2.70;;;;;;;;;;4997885;28;20072;-81
2023/05/14 04:18:02;;;;;;;6.85;2.80;;;;;;;;;;4986140;28;20049;-81
2023/05/14 04:20:28;;;;;;;5.90;2.70;;;;;;;;;;4987368;28;20030;-81
2023/05/14 04:22:53;;;;;;;3.83;2.75;;;;;;;;;;5009069;28;20042;-81
2023/05/14 04:25:19;;;;;;;3.75;2.72;;;;;;;;;;5011549;28;20392;-81
2023/05/14 04:27:45;;;;;;;3.60;2.55;;;;;;;;;;5015421;28;20052;-82
2023/05/14 04:30:10;;;;;;;4.78;2.65;;;;;;;;;;5013789;28;20026;-81
2023/05/14 04:32:36;;;;;;;6.25;3.10;;;;;;;;;;4998166;28;20042;-82
2023/05/14 04:35:03;;;;;;;3.60;2.63;;;;;;;;;;4988053;28;20073;-81
2023/05/14 04:37:29;;;;;;;2.97;2.55;;;;;;;;;;5012075;28;20037;-82
2023/05/14 04:39:55;;;;;;;4.10;2.40;;;;;;;;;;5019370;28;20037;-82
2023/05/14 04:42:21;;;;;;;3.10;2.40;;;;;;;;;;5004236;28;20187;-83
2023/05/14 04:44:46;;;;;;;4.43;2.30;;;;;;;;;;5015838;28;20480;-83
2023/05/14 04:47:12;;;;;;;3.85;3.00;;;;;;;;;;5009299;28;20030;-81
2023/05/14 04:49:37;;;;;;;3.80;2.90;;;;;;;;;;4995113;28;20033;-82
2023/05/14 04:52:03;;;;;;;3.85;2.50;;;;;;;;;;5017046;28;20029;-82
2023/05/14 04:54:29;;;;;;;3.30;2.30;;;;;;;;;;5019770;28;20540;-82
2023/05/14 04:56:54;;;;;;;2.72;2.20;;;;;;;;;;5017364;28;20110;-83
2023/05/14 04:59:20;;;;;;;3.22;2.10;;;;;;;;;;4971583;28;20469;-82
2023/05/14 05:01:46;;;;;;;3.15;2.08;;;;;;;;;;5010860;28;20046;-83
2023/05/14 05:04:12;;;;;;;4.80;2.00;;;;;;;;;;4996572;28;20034;-82
2023/05/14 05:06:37;;;;;;;3.05;2.00;;;;;;;;;;4999149;28;20468;-81
2023/05/14 05:09:03;;;;;;;2.10;1.83;;;;;;;;;;5016386;28;20030;-84
2023/05/14 05:11:29;;;;;;;3.05;2.30;;;;;;;;;;4967573;28;20034;-83
2023/05/14 05:13:54;;;;;;;2.80;2.20;;;;;;;;;;4988156;28;20045;-83
2023/05/14 05:16:20;;;;;;;3.75;2.15;;;;;;;;;;4993397;28;20039;-82
2023/05/14 05:18:45;;;;;;;2.35;1.80;;;;;;;;;;4980744;28;20042;-82
2023/05/14 05:21:11;;;;;;;2.88;2.10;;;;;;;;;;5000265;28;20030;-82
2023/05/14 05:23:36;;;;;;;3.03;2.22;;;;;;;;;;4989170;28;20034;-82
2023/05/14 05:26:02;;;;;;;2.50;2.25;;;;;;;;;;4972271;28;20030;-81
2023/05/14 05:28:27;;;;;;;5.43;2.20;;;;;;;;;;5009487;28;20034;-82
2023/05/14 05:30:53;;;;;;;3.50;2.45;;;;;;;;;;4995889;28;20042;-81
2023/05/14 05:33:18;;;;;;;4.50;2.35;;;;;;;;;;4999491;28;20033;-81
2023/05/14 05:35:44;;;;;;;2.75;2.25;;;;;;;;;;4992420;28;20095;-82
2023/05/14 05:38:09;;;;;;;4.05;2.60;;;;;;;;;;5005740;28;20072;-82
2023/05/14 05:40:35;;;;;;;5.07;1.77;;;;;;;;;;4991769;28;20042;-81
2023/05/14 05:43:00;;;;;;;3.13;2.10;;;;;;;;;;4994765;28;20761;-82
2023/05/14 05:45:26;;;;;;;3.50;1.90;;;;;;;;;;5001857;28;20050;-81
2023/05/14 05:47:51;;;;;;;3.65;2.00;;;;;;;;;;4979676;28;20448;-81
2023/05/14 05:50:17;;;;;;;3.47;1.83;;;;;;;;;;4971705;28;20077;-82
2023/05/14 05:52:42;;;;;;;5.25;2.55;;;;;;;;;;5006949;28;20042;-81
2023/05/14 05:55:08;;;;;;;6.22;3.05;;;;;;;;;;4996475;28;20043;-83
2023/05/14 05:57:33;;;;;;;2.47;2.10;;;;;;;;;;5019120;28;20104;-82
2023/05/14 05:59:59;;;;;;;4.60;2.38;;;;;;;;;;5003090;28;20511;-83
2023/05/14 06:02:24;;;;;;;3.35;2.60;;;;;;;;;;4972600;28;20026;-85
2023/05/14 06:04:50;;;;;;;5.10;3.15;;;;;;;;;;4993413;28;20069;-83
2023/05/14 06:07:15;;;;;;;3.45;2.10;;;;;;;;;;5005291;28;20144;-81
2023/05/14 06:09:41;;;;;;;4.63;2.13;;;;;;;;;;4994467;28;20062;-81
2023/05/14 06:12:07;;;;;;;3.20;2.10;;;;;;;;;;5000668;28;20033;-82
2023/05/14 06:14:32;;;;;;;3.80;2.60;;;;;;;;;;4984886;28;20106;-81
2023/05/14 06:16:57;;;;;;;6.65;2.40;;;;;;;;;;5006131;28;20037;-82
2023/05/14 06:19:23;;;;;;;6.20;2.40;;;;;;;;;;4977108;28;20033;-81
2023/05/14 06:21:49;;;;;;;4.35;2.55;;;;;;;;;;5015065;28;20059;-82
2023/05/14 06:24:15;;;;;;;2.90;2.50;;;;;;;;;;5018533;28;20036;-81
2023/05/14 06:26:40;;;;;;;7.57;4.85;;;;;;;;;;4993908;28;20058;-80
2023/05/14 06:29:06;;;;;;;4.85;3.72;;;;;;;;;;4985824;28;20058;-80
2023/05/14 06:31:31;;;;;;;6.38;3.85;;;;;;;;;;4991281;28;20088;-82
2023/05/14 06:33:57;;;;;;;4.78;2.58;;;;;;;;;;4996702;28;20046;-82
2023/05/14 06:36:22;;;;;;;2.20;2.00;;;;;;;;;;5000082;28;20034;-81
2023/05/14 06:38:48;;;;;;;2.60;2.20;;;;;;;;;;5003905;28;20045;-80
2023/05/14 06:41:13;;;;;;;2.85;2.50;;;;;;;;;;4971389;28;20050;-81
2023/05/14 06:43:39;;;;;;;3.13;2.40;;;;;;;;;;4990361;28;20041;-81
2023/05/14 06:46:04;;;;;;;3.15;2.50;;;;;;;;;;4989255;28;20049;-80
2023/05/14 06:48:30;;;;;;;2.55;2.30;;;;;;;;;;5007961;28;20038;-80
2023/05/14 06:50:55;;;;;;;2.55;2.08;;;;;;;;;;4993821;28;20045;-82
2023/05/14 06:53:21;;;;;;;4.85;2.20;;;;;;;;;;4997592;28;20070;-78
2023/05/14 06:55:47;;;;;;;2.97;2.00;;;;;;;;;;4961124;28;20460;-81
2023/05/14 06:58:13;;;;;;;3.28;2.30;;;;;;;;;;4986095;28;20057;-83
2023/05/14 07:00:39;;;;;;;2.72;1.80;;;;;;;;;;5014534;28;20046;-82
2023/05/14 07:03:04;;;;;;;3.85;2.13;;;;;;;;;;5001258;28;20038;-82
2023/05/14 07:05:30;;;;;;;3.55;1.83;;;;;;;;;;5004259;28;20037;-83
2023/05/14 07:07:55;;;;;;;4.15;2.20;;;;;;;;;;5026611;28;20065;-80
2023/05/14 07:10:21;;;;;;;2.45;2.00;;;;;;;;;;4999554;28;20031;-81
2023/05/14 07:12:48;;;;;;;4.13;2.05;;;;;;;;;;4971640;28;20522;-81
2023/05/14 07:15:13;;;;;;;2.80;2.17;;;;;;;;;;4974660;28;20065;-80
2023/05/14 07:17:40;;;;;;;2.38;2.10;;;;;;;;;;4995033;28;20048;-82
2023/05/14 07:20:06;;;;;;;4.10;2.20;;;;;;;;;;4978364;28;20049;-80
2023/05/14 07:22:31;;;;;;;3.40;2.00;;;;;;;;;;5001961;28;20403;-81
2023/05/14 07:24:57;;;;;;;3.03;2.22;;;;;;;;;;5001562;28;20030;-80
2023/05/14 07:27:22;;;;;;;3.95;2.45;;;;;;;;;;5005616;28;20053;-80
2023/05/14 07:29:49;;;;;;;5.82;2.50;;;;;;;;;;5009012;28;20102;-81
2023/05/14 07:32:15;;;;;;;4.03;2.10;;;;;;;;;;5011876;28;20096;-82
2023/05/14 07:34:40;;;;;;;3.03;2.38;;;;;;;;;;5014745;28;20038;-81
2023/05/14 07:37:06;;;;;;;8.88;2.83;;;;;;;;;;5017587;28;20038;-81
2023/05/14 07:39:31;;;;;;;3.97;3.10;;;;;;;;;;5002003;28;20042;-81
2023/05/14 07:41:57;;;;;;;5.90;3.30;;;;;;;;;;5016076;28;20129;-82
2023/05/14 07:44:22;;;;;;;7.10;2.90;;;;;;;;;;5005517;28;20049;-81
2023/05/14 07:46:48;;;;;;;5.28;2.60;;;;;;;;;;4990926;28;20034;-80
2023/05/14 07:49:13;;;;;;;3.88;2.63;;;;;;;;;;5010599;28;20029;-81
2023/05/14 07:51:39;;;;;;;6.88;2.70;;;;;;;;;;5014757;28;20032;-81
2023/05/14 07:54:04;;;;;;;5.38;3.35;;;;;;;;;;5017319;28;20049;-80
2023/05/14 07:56:30;;;;;;;3.17;2.60;;;;;;;;;;5000332;28;20049;-81
2023/05/14 07:58:55;;;;;;;5.13;3.38;;;;;;;;;;4992584;28;20049;-81
2023/05/14 08:01:21;;;;;;;7.43;4.55;;;;;;;;;;4985927;28;20044;-83
2023/05/14 08:03:47;;;;;;;5.82;4.03;;;;;;;;;;4998687;28;20038;-83
2023/05/14 08:06:12;;;;;;;5.57;3.72;;;;;;;;;;5005880;28;20032;-83
2023/05/14 08:08:38;;;;;;;5.68;4.20;;;;;;;;;;4995427;28;20041;-82
2023/05/14 08:11:03;;;;;;;6.07;4.00;;;;;;;;;;5000646;28;20077;-81
2023/05/14 08:13:29;;;;;;;4.05;3.08;;;;;;;;;;5021981;28;20033;-81
2023/05/14 08:15:55;;;;;;;5.30;3.50;;;;;;;;;;5000763;28;20039;-80
2023/05/14 08:18:20;;;;;;;3.42;2.72;;;;;;;;;;4977590;28;20040;-82
2023/05/14 08:20:47;;;;;;;5.85;3.45;;;;;;;;;;5006348;28;20068;-82
2023/05/14 08:23:13;;;;;;;6.93;3.60;;;;;;;;;;5016493;28;20045;-81
2023/05/14 08:25:38;;;;;;;8.52;4.35;;;;;;;;;;5018307;28;20026;-81
2023/05/14 08:28:04;;;;;;;7.30;4.90;;;;;;;;;;5019497;28;20038;-83
2023/05/14 08:30:29;;;;;;;7.25;5.45;;;;;;;;;;5001660;28;20081;-82
2023/05/14 08:32:55;;;;;;;8.55;5.43;;;;;;;;;;5002714;28;20038;-81
2023/05/14 08:35:20;;;;;;;7.25;5.30;;;;;;;;;;5001714;28;20034;-82
2023/05/14 08:37:46;;;;;;;7.03;5.25;;;;;;;;;;5002433;28;20038;-82
2023/05/14 08:40:12;;;;;;;9.20;5.85;;;;;;;;;;5013059;28;20124;-81
2023/05/14 08:42:42;;;;;;;11.00;6.88;;;;;;;;;;5013337;28;20038;-81
2023/05/14 08:45:12;;;;;;;10.88;7.13;;;;;;;;;;5013114;28;20392;-83
2023/05/14 08:47:38;;;;;;;12.57;8.18;;;;;;;;;;4996311;28;20045;-83
2023/05/14 08:50:06;;;;;;;12.95;7.97;;;;;;;;;;5005974;28;20045;-83
2023/05/14 08:52:32;;;;;;;14.32;8.80;;;;;;;;;;5008396;28;20031;-82
2023/05/14 08:54:59;;;;;;;14.00;9.48;;;;;;;;;;5011302;28;20048;-82
2023/05/14 08:57:25;;;;;;;14.13;8.52;;;;;;;;;;5015982;28;20046;-80
2023/05/14 08:59:52;;;;;;;13.38;8.38;;;;;;;;;;4999796;28;20172;-83
2023/05/14 09:02:21;;;;;;;17.23;11.25;;;;;;;;;;5021711;28;20034;-81
2023/05/14 09:04:49;;;;;;;15.65;9.13;;;;;;;;;;4998892;28;20043;-82
2023/05/14 09:07:14;;;;;;;15.98;9.85;;;;;;;;;;4972114;28;20057;-83
2023/05/14 09:09:40;;;;;;;12.43;8.40;;;;;;;;;;5012500;28;20045;-81
2023/05/14 09:12:06;;;;;;;12.48;8.35;;;;;;;;;;5009922;28;20072;-81
2023/05/14 09:14:32;;;;;;;13.75;8.90;;;;;;;;;;5010093;28;20126;-81
2023/05/14 09:16:58;;;;;;;11.30;7.35;;;;;;;;;;5012780;28;20037;-81
2023/05/14 09:19:24;;;;;;;13.55;7.88;;;;;;;;;;5015522;28;20511;-81
2023/05/14 09:21:50;;;;;;;10.23;7.55;;;;;;;;;;4985319;28;20186;-83
2023/05/14 09:24:24;;;;;;;10.25;7.30;;;;;;;;;;4969927;28;20035;-81
2023/05/14 09:26:51;;;;;;;14.65;8.05;;;;;;;;;;4991533;28;20026;-81
2023/05/14 09:29:17;;;;;;;13.50;8.73;;;;;;;;;;5012528;28;20044;-81
2023/05/14 09:31:42;;;;;;;14.13;8.25;;;;;;;;;;4997774;28;20058;-81
2023/05/14 09:34:08;;;;;;;14.30;7.95;;;;;;;;;;5000064;28;20042;-82
2023/05/14 09:36:34;;;;;;;11.95;7.78;;;;;;;;;;4996380;28;20043;-82
2023/05/14 09:39:02;;;;;;;9.15;6.47;;;;;;;;;;4987038;28;20169;-81
2023/05/14 09:41:27;;;;;;;10.70;7.00;;;;;;;;;;5001285;28;20044;-81
2023/05/14 09:43:53;;;;;;;12.25;7.70;;;;;;;;;;4992378;28;20113;-82
2023/05/14 09:46:18;;;;;;;8.35;6.00;;;;;;;;;;4978703;28;20043;-83
2023/05/14 09:48:44;;;;;;;9.57;6.03;;;;;;;;;;4998843;28;20076;-81
2023/05/14 09:51:10;;;;;;;11.68;6.22;;;;;;;;;;5001643;28;20068;-82
2023/05/14 09:53:36;;;;;;;10.73;6.68;;;;;;;;;;5013003;28;20046;-82
2023/05/14 09:56:02;;;;;;;9.63;6.65;;;;;;;;;;5005789;28;20057;-81
2023/05/14 09:58:28;;;;;;;8.93;6.32;;;;;;;;;;5009591;28;20065;-82
2023/05/14 10:00:56;;;;;;;9.35;5.97;;;;;;;;;;4993607;28;20548;-82
2023/05/14 10:03:24;;;;;;;11.75;7.70;;;;;;;;;;5014583;28;20033;-83
2023/05/14 10:05:50;;;;;;;9.15;6.18;;;;;;;;;;5015074;28;20096;-84
2023/05/14 10:08:25;;;;;;;9.38;6.85;;;;;;;;;;5001858;28;20034;-83
2023/05/14 10:10:53;;;;;;;10.85;7.18;;;;;;;;;;4970660;28;20039;-82
2023/05/14 10:13:27;;;;;;;10.15;6.78;;;;;;;;;;4971408;28;20034;-80
2023/05/14 10:16:04;;;;;;;12.85;7.38;;;;;;;;;;5007044;28;20117;-81
2023/05/14 10:18:34;;;;;;;8.80;6.70;;;;;;;;;;4990018;28;20439;-80
2023/05/14 10:21:04;;;;;;;9.73;6.90;;;;;;;;;;4995968;28;20058;-82
2023/05/14 10:23:30;;;;;;;9.73;6.43;;;;;;;;;;4978156;28;20080;-81
2023/05/14 10:25:57;;;;;;;15.88;7.82;;;;;;;;;;4990538;28;20030;-81
2023/05/14 10:28:23;;;;;;;15.27;8.55;;;;;;;;;;5001062;28;20046;-80
2023/05/14 10:30:49;;;;;;;15.02;7.53;;;;;;;;;;5002902;28;20030;-81
2023/05/14 10:33:17;;;;;;;9.60;5.82;;;;;;;;;;4989892;28;20058;-80
2023/05/14 10:36:06;;;;;;;9.27;5.50;;;;;;;;;;5010870;28;20038;-81
2023/05/14 10:38:34;;;;;;;7.18;5.20;;;;;;;;;;5000231;28;20064;-82
2023/05/14 10:41:02;;;;;;;7.88;5.63;;;;;;;;;;5018875;28;20077;-81
2023/05/14 10:43:29;;;;;;;8.23;6.13;;;;;;;;;;4972859;28;20035;-80
2023/05/14 10:45:57;;;;;;;8.55;6.07;;;;;;;;;;5000299;28;20105;-80
2023/05/14 10:48:24;;;;;;;8.60;5.68;;;;;;;;;;4989718;28;20038;-81
2023/05/14 10:50:50;;;;;;;9.32;6.13;;;;;;;;;;5010734;28;20097;-81
2023/05/14 10:53:16;;;;;;;9.02;5.70;;;;;;;;;;5014618;28;20799;-80
2023/05/14 10:55:42;;;;;;;7.07;5.32;;;;;;;;;;5012905;28;20030;-82
2023/05/14 10:58:10;;;;;;;8.65;6.03;;;;;;;;;;5017615;28;20046;-81
2023/05/14 11:00:36;;;;;;;8.75;5.85;;;;;;;;;;5001204;28;20065;-81
2023/05/14 11:03:05;;;;;;;11.00;6.85;;;;;;;;;;5005982;28;20041;-81
2023/05/14 11:05:32;;;;;;;7.57;5.60;;;;;;;;;;5009875;28;20492;-82
2023/05/14 11:07:58;;;;;;;7.35;5.22;;;;;;;;;;5034060;22;20086;-85
2023/05/14 11:10:24;;;;;;;9.07;5.15;;;;;;;;;;5055954;28;20068;-85
2023/05/14 11:12:51;;;;;;;8.15;5.13;;;;;;;;;;5059644;28;20033;-86
2023/05/14 11:15:20;;;;;;;7.57;5.32;;;;;;;;;;5048823;28;20093;-85
2023/05/14 11:17:47;;;;;;;8.80;6.00;;;;;;;;;;5023760;28;20057;-86
2023/05/14 11:20:13;;;;;;;8.43;5.80;;;;;;;;;;5029968;28;20061;-85
2023/05/14 11:22:41;;;;;;;9.77;6.35;;;;;;;;;;5029125;28;20025;-86
2023/05/14 11:25:08;;;;;;;8.15;6.13;;;;;;;;;;5013196;28;20046;-86
2023/05/14 11:27:36;;;;;;;9.05;5.53;;;;;;;;;;5014434;28;20042;-85
2023/05/14 11:30:02;;;;;;;9.32;5.20;;;;;;;;;;5028162;28;20038;-86
2023/05/14 11:32:30;;;;;;;7.53;5.03;;;;;;;;;;5033753;28;20044;-85
2023/05/14 11:34:56;;;;;;;8.52;5.90;;;;;;;;;;5018909;28;20045;-86
2023/05/14 11:37:21;;;;;;;8.25;6.03;;;;;;;;;;5031521;28;20057;-83
2023/05/14 11:39:54;;;;;;;7.18;5.13;;;;;;;;;;5031091;28;20496;-85
2023/05/14 11:42:22;;;;;;;6.63;4.75;;;;;;;;;;5033029;28;20060;-86
2023/05/14 11:44:50;;;;;;;8.52;5.68;;;;;;;;;;5018954;28;20045;-85
2023/05/14 11:47:18;;;;;;;6.75;5.10;;;;;;;;;;5023826;28;20093;-86
2023/05/14 11:49:44;;;;;;;7.50;5.65;;;;;;;;;;5026756;28;20124;-85
2023/05/14 11:52:13;;;;;;;7.97;5.47;;;;;;;;;;5028938;28;20140;-85
2023/05/14 11:54:39;;;;;;;7.55;5.80;;;;;;;;;;5033633;28;20060;-85
2023/05/14 11:57:12;;;;;;;7.75;5.53;;;;;;;;;;5036952;28;20026;-85
2023/05/14 11:59:38;;;;;;;9.38;5.75;;;;;;;;;;5015527;28;20065;-85
2023/05/14 12:02:07;;;;;;;9.98;5.85;;;;;;;;;;5039935;28;20033;-86
2023/05/14 12:04:33;;;;;;;9.40;5.30;;;;;;;;;;5011053;28;20044;-86
2023/05/14 12:07:06;;;;;;;6.10;4.40;;;;;;;;;;5028962;28;20037;-85
2023/05/14 12:09:36;;;;;;;6.82;4.63;;;;;;;;;;5031871;28;20167;-86
2023/05/14 12:12:07;;;;;;;5.25;4.30;;;;;;;;;;5036993;28;20042;-85
2023/05/14 12:14:37;;;;;;;7.70;5.10;;;;;;;;;;5035534;28;20048;-85
2023/05/14 12:17:02;;;;;;;6.75;4.40;;;;;;;;;;5021614;28;20030;-84
2023/05/14 12:19:29;;;;;;;6.35;4.88;;;;;;;;;;5042534;28;20044;-85
2023/05/14 12:21:54;;;;;;;7.75;5.30;;;;;;;;;;5033160;28;20037;-85
2023/05/14 12:24:20;;;;;;;7.20;5.40;;;;;;;;;;5013255;28;20030;-86
2023/05/14 12:26:46;;;;;;;7.78;5.90;;;;;;;;;;5014437;28;20026;-87
2023/05/14 12:29:14;;;;;;;13.20;8.88;;;;;;;;;;5029534;28;20116;-86
2023/05/14 12:31:47;;;;;;;8.23;6.28;;;;;;;;;;5032073;28;20040;-86
2023/05/14 12:34:12;;;;;;;6.23;4.60;;;;;;;;;;5016963;28;20124;-86
2023/05/14 12:36:38;;;;;;;6.45;5.00;;;;;;;;;;5033463;28;20065;-87
2023/05/14 12:39:04;;;;;;;8.73;5.28;;;;;;;;;;5033004;28;20042;-85
2023/05/14 12:41:31;;;;;;;5.60;3.80;;;;;;;;;;5032454;28;20080;-88
2023/05/14 12:43:57;;;;;;;6.20;4.20;;;;;;;;;;5026874;28;20033;-87
2023/05/14 12:46:24;;;;;;;6.57;4.55;;;;;;;;;;5035713;28;20032;-88
2023/05/14 12:48:50;;;;;;;7.25;5.03;;;;;;;;;;5035600;28;20124;-88
2023/05/14 12:51:15;;;;;;;7.63;5.30;;;;;;;;;;5038010;28;20072;-87
2023/05/14 12:53:41;;;;;;;6.57;5.03;;;;;;;;;;5016506;28;20128;-87
2023/05/14 12:56:07;;;;;;;7.80;4.90;;;;;;;;;;5024055;28;20068;-89
2023/05/14 12:58:32;;;;;;;6.35;5.22;;;;;;;;;;5026638;28;20033;-89
2023/05/14 13:00:58;;;;;;;6.32;4.60;;;;;;;;;;5027968;28;20042;-86
2023/05/14 13:03:24;;;;;;;5.85;4.47;;;;;;;;;;5030898;28;20044;-88
2023/05/14 13:05:51;;;;;;;5.72;4.25;;;;;;;;;;5034424;28;20181;-88
2023/05/14 13:08:17;;;;;;;5.78;4.68;;;;;;;;;;5029228;28;20554;-89
2023/05/14 13:10:43;;;;;;;7.18;4.68;;;;;;;;;;5028791;28;20042;-88
2023/05/14 13:13:10;;;;;;;7.10;5.00;;;;;;;;;;5023761;28;20041;-87
2023/05/14 13:15:36;;;;;;;7.82;4.45;;;;;;;;;;5028064;28;20043;-88
2023/05/14 13:18:02;;;;;;;5.97;4.70;;;;;;;;;;5026386;28;20160;-86
2023/05/14 13:20:29;;;;;;;6.93;4.88;;;;;;;;;;5031399;28;20041;-87
2023/05/14 13:22:56;;;;;;;6.45;4.28;;;;;;;;;;5032641;28;20048;-87
2023/05/14 13:25:21;;;;;;;5.95;4.35;;;;;;;;;;5039486;28;20092;-89
2023/05/14 13:27:49;;;;;;;7.13;5.30;;;;;;;;;;5037666;28;20064;-86
2023/05/14 13:30:16;;;;;;;6.72;4.72;;;;;;;;;;5024592;28;20061;-87
2023/05/14 13:32:42;;;;;;;5.32;4.30;;;;;;;;;;5025828;28;20045;-87
2023/05/14 13:35:08;;;;;;;7.80;4.30;;;;;;;;;;5027176;28;20386;-87
2023/05/14 13:37:33;;;;;;;5.80;4.50;;;;;;;;;;5032816;28;20065;-87
2023/05/14 13:39:59;;;;;;;6.20;4.50;;;;;;;;;;5036131;28;20037;-87
2023/05/14 13:42:24;;;;;;;8.00;4.18;;;;;;;;;;5020379;28;20076;-86
2023/05/14 13:44:50;;;;;;;7.05;4.50;;;;;;;;;;5026234;28;20037;-87
2023/05/14 13:47:15;;;;;;;5.85;4.10;;;;;;;;;;5035262;28;20029;-84
2023/05/14 13:49:42;;;;;;;6.30;3.70;;;;;;;;;;5033684;28;20037;-86
2023/05/14 13:52:07;;;;;;;5.65;3.88;;;;;;;;;;5015554;28;20487;-86
2023/05/14 13:54:32;;;;;;;4.35;3.30;;;;;;;;;;5031697;28;20034;-87
2023/05/14 13:56:58;;;;;;;5.43;3.60;;;;;;;;;;5040839;28;20468;-87
2023/05/14 13:59:23;;;;;;;5.20;3.63;;;;;;;;;;5031800;28;20042;-87
2023/05/14 14:01:50;;;;;;;6.85;3.50;;;;;;;;;;5008729;28;20038;-87
2023/05/14 14:04:16;;;;;;;4.22;3.22;;;;;;;;;;5028929;28;20049;-87
2023/05/14 14:06:42;;;;;;;6.15;3.30;;;;;;;;;;5015244;28;20055;-86
2023/05/14 14:09:07;;;;;;;3.80;3.03;;;;;;;;;;5035328;28;20033;-85
2023/05/14 14:11:33;;;;;;;5.25;4.00;;;;;;;;;;5037607;28;20457;-86
2023/05/14 14:13:58;;;;;;;5.85;4.10;;;;;;;;;;5023405;28;20103;-86
2023/05/14 14:16:24;;;;;;;4.38;3.45;;;;;;;;;;5024971;28;20034;-87
2023/05/14 14:18:49;;;;;;;5.60;3.70;;;;;;;;;;5001532;28;20102;-86
2023/05/14 14:21:16;;;;;;;6.05;3.53;;;;;;;;;;5019695;28;20550;-86
2023/05/14 14:23:44;;;;;;;4.75;3.78;;;;;;;;;;4995666;28;20045;-86
2023/05/14 14:26:10;;;;;;;5.30;3.47;;;;;;;;;;5014189;28;20046;-86
2023/05/14 14:28:35;;;;;;;4.20;3.10;;;;;;;;;;5028879;28;20065;-86
2023/05/14 14:31:01;;;;;;;4.85;3.60;;;;;;;;;;5024624;28;20856;-87
2023/05/14 14:33:27;;;;;;;5.55;3.28;;;;;;;;;;5028315;28;20101;-87
2023/05/14 14:35:52;;;;;;;4.97;3.72;;;;;;;;;;4995730;28;20044;-86
2023/05/14 14:38:18;;;;;;;4.63;3.80;;;;;;;;;;5024401;28;20045;-87